sensor_id;sensor_type;location;lat;lon;timestamp;P1;durP1;ratioP1;P2;durP2;ratioP2
74415;SDS011;62850;42.428;25.618;2023-04-25T00:01:03;8.55;;;5.70;;
74415;SDS011;62850;42.428;25.618;2023-04-25T00:03:33;12.68;;;6.20;;
74415;SDS011;62850;42.428;25.618;2023-04-25T00:06:00;11.30;;;6.65;;
74415;SDS011;62850;42.428;25.618;2023-04-25T00:08:27;9.65;;;5.85;;
74415;SDS011;62850;42.428;25.618;2023-04-25T00:10:53;11.05;;;6.35;;
74415;SDS011;62850;42.428;25.618;2023-04-25T00:13:19;11.77;;;7.10;;
74415;SDS011;62850;42.428;25.618;2023-04-25T00:15:45;10.02;;;6.63;;
74415;SDS011;62850;42.428;25.618;2023-04-25T00:18:11;11.70;;;6.45;;
74415;SDS011;62850;42.428;25.618;2023-04-25T00:20:36;12.05;;;7.10;;
74415;SDS011;62850;42.428;25.618;2023-04-25T00:23:02;10.27;;;6.15;;
74415;SDS011;62850;42.428;25.618;2023-04-25T00:25:27;11.45;;;7.30;;
74415;SDS011;62850;42.428;25.618;2023-04-25T00:27:54;10.98;;;7.38;;
74415;SDS011;62850;42.428;25.618;2023-04-25T00:30:20;16.30;;;7.88;;
74415;SDS011;62850;42.428;25.618;2023-04-25T00:32:45;12.23;;;7.60;;
74415;SDS011;62850;42.428;25.618;2023-04-25T00:35:11;11.65;;;7.78;;
74415;SDS011;62850;42.428;25.618;2023-04-25T00:37:36;11.10;;;7.68;;
74415;SDS011;62850;42.428;25.618;2023-04-25T00:40:04;11.35;;;6.90;;
74415;SDS011;62850;42.428;25.618;2023-04-25T00:42:31;12.95;;;7.90;;
74415;SDS011;62850;42.428;25.618;2023-04-25T00:44:57;9.52;;;7.05;;
74415;SDS011;62850;42.428;25.618;2023-04-25T00:47:24;12.27;;;7.85;;
74415;SDS011;62850;42.428;25.618;2023-04-25T00:49:50;13.82;;;8.40;;
74415;SDS011;62850;42.428;25.618;2023-04-25T00:52:16;12.93;;;7.72;;
74415;SDS011;62850;42.428;25.618;2023-04-25T00:54:42;11.75;;;7.55;;
74415;SDS011;62850;42.428;25.618;2023-04-25T00:57:07;12.20;;;7.82;;
74415;SDS011;62850;42.428;25.618;2023-04-25T00:59:33;13.43;;;8.05;;
74415;SDS011;62850;42.428;25.618;2023-04-25T01:01:59;14.10;;;8.65;;
74415;SDS011;62850;42.428;25.618;2023-04-25T01:04:26;12.85;;;8.60;;
74415;SDS011;62850;42.428;25.618;2023-04-25T01:06:52;13.07;;;8.77;;
74415;SDS011;62850;42.428;25.618;2023-04-25T01:09:19;16.58;;;8.80;;
74415;SDS011;62850;42.428;25.618;2023-04-25T01:11:45;13.57;;;8.45;;
74415;SDS011;62850;42.428;25.618;2023-04-25T01:14:10;12.60;;;8.50;;
74415;SDS011;62850;42.428;25.618;2023-04-25T01:16:36;12.10;;;8.73;;
74415;SDS011;62850;42.428;25.618;2023-04-25T01:19:03;12.23;;;7.45;;
74415;SDS011;62850;42.428;25.618;2023-04-25T01:21:33;14.73;;;9.40;;
74415;SDS011;62850;42.428;25.618;2023-04-25T01:23:59;13.10;;;9.45;;
74415;SDS011;62850;42.428;25.618;2023-04-25T01:26:24;16.20;;;10.40;;
74415;SDS011;62850;42.428;25.618;2023-04-25T01:28:50;16.50;;;11.10;;
74415;SDS011;62850;42.428;25.618;2023-04-25T01:31:17;18.80;;;11.27;;
74415;SDS011;62850;42.428;25.618;2023-04-25T01:33:43;16.70;;;11.65;;
74415;SDS011;62850;42.428;25.618;2023-04-25T01:36:09;19.95;;;11.98;;
74415;SDS011;62850;42.428;25.618;2023-04-25T01:38:35;15.40;;;11.18;;
74415;SDS011;62850;42.428;25.618;2023-04-25T01:41:01;16.13;;;11.35;;
74415;SDS011;62850;42.428;25.618;2023-04-25T01:43:27;15.93;;;11.25;;
74415;SDS011;62850;42.428;25.618;2023-04-25T01:45:52;18.10;;;12.02;;
74415;SDS011;62850;42.428;25.618;2023-04-25T01:48:18;15.85;;;10.27;;
74415;SDS011;62850;42.428;25.618;2023-04-25T01:50:44;14.18;;;9.52;;
74415;SDS011;62850;42.428;25.618;2023-04-25T01:53:10;16.15;;;9.95;;
74415;SDS011;62850;42.428;25.618;2023-04-25T01:55:38;15.52;;;9.80;;
74415;SDS011;62850;42.428;25.618;2023-04-25T01:58:03;15.40;;;8.95;;
74415;SDS011;62850;42.428;25.618;2023-04-25T02:00:34;18.85;;;11.10;;
74415;SDS011;62850;42.428;25.618;2023-04-25T02:03:00;15.88;;;10.68;;
74415;SDS011;62850;42.428;25.618;2023-04-25T02:05:26;17.50;;;10.85;;
74415;SDS011;62850;42.428;25.618;2023-04-25T02:07:51;18.83;;;11.55;;
74415;SDS011;62850;42.428;25.618;2023-04-25T02:10:16;15.63;;;10.27;;
74415;SDS011;62850;42.428;25.618;2023-04-25T02:12:42;17.60;;;11.68;;
74415;SDS011;62850;42.428;25.618;2023-04-25T02:15:08;19.63;;;11.57;;
74415;SDS011;62850;42.428;25.618;2023-04-25T02:17:33;20.35;;;11.80;;
74415;SDS011;62850;42.428;25.618;2023-04-25T02:19:59;16.50;;;10.90;;
74415;SDS011;62850;42.428;25.618;2023-04-25T02:22:24;20.40;;;12.48;;
74415;SDS011;62850;42.428;25.618;2023-04-25T02:24:51;20.50;;;12.65;;
74415;SDS011;62850;42.428;25.618;2023-04-25T02:27:18;20.17;;;12.98;;
74415;SDS011;62850;42.428;25.618;2023-04-25T02:29:43;21.98;;;13.85;;
74415;SDS011;62850;42.428;25.618;2023-04-25T02:32:09;21.40;;;13.48;;
74415;SDS011;62850;42.428;25.618;2023-04-25T02:34:34;21.80;;;13.10;;
74415;SDS011;62850;42.428;25.618;2023-04-25T02:37:00;24.73;;;14.25;;
74415;SDS011;62850;42.428;25.618;2023-04-25T02:39:25;21.05;;;13.75;;
74415;SDS011;62850;42.428;25.618;2023-04-25T02:41:52;19.75;;;12.90;;
74415;SDS011;62850;42.428;25.618;2023-04-25T02:44:17;22.95;;;14.05;;
74415;SDS011;62850;42.428;25.618;2023-04-25T02:46:43;22.10;;;13.23;;
74415;SDS011;62850;42.428;25.618;2023-04-25T02:49:08;21.17;;;12.80;;
74415;SDS011;62850;42.428;25.618;2023-04-25T02:51:34;24.00;;;13.43;;
74415;SDS011;62850;42.428;25.618;2023-04-25T02:54:00;21.27;;;13.05;;
74415;SDS011;62850;42.428;25.618;2023-04-25T02:56:25;21.00;;;12.40;;
74415;SDS011;62850;42.428;25.618;2023-04-25T02:58:52;20.88;;;14.10;;
74415;SDS011;62850;42.428;25.618;2023-04-25T03:01:17;19.75;;;13.82;;
74415;SDS011;62850;42.428;25.618;2023-04-25T03:03:43;20.83;;;14.02;;
74415;SDS011;62850;42.428;25.618;2023-04-25T03:06:08;24.75;;;14.02;;
74415;SDS011;62850;42.428;25.618;2023-04-25T03:08:34;18.67;;;13.45;;
74415;SDS011;62850;42.428;25.618;2023-04-25T03:10:59;21.17;;;12.50;;
74415;SDS011;62850;42.428;25.618;2023-04-25T03:13:25;24.17;;;13.45;;
74415;SDS011;62850;42.428;25.618;2023-04-25T03:15:52;20.02;;;13.00;;
74415;SDS011;62850;42.428;25.618;2023-04-25T03:18:17;21.05;;;13.32;;
74415;SDS011;62850;42.428;25.618;2023-04-25T03:20:43;25.77;;;13.63;;
74415;SDS011;62850;42.428;25.618;2023-04-25T03:23:08;20.17;;;13.20;;
74415;SDS011;62850;42.428;25.618;2023-04-25T03:25:34;21.42;;;14.20;;
74415;SDS011;62850;42.428;25.618;2023-04-25T03:28:00;21.98;;;12.88;;
74415;SDS011;62850;42.428;25.618;2023-04-25T03:30:25;20.73;;;12.18;;
74415;SDS011;62850;42.428;25.618;2023-04-25T03:32:50;18.83;;;12.75;;
74415;SDS011;62850;42.428;25.618;2023-04-25T03:35:16;19.88;;;12.43;;
74415;SDS011;62850;42.428;25.618;2023-04-25T03:37:41;19.90;;;12.57;;
74415;SDS011;62850;42.428;25.618;2023-04-25T03:40:10;19.98;;;12.23;;
74415;SDS011;62850;42.428;25.618;2023-04-25T03:42:36;20.33;;;11.73;;
74415;SDS011;62850;42.428;25.618;2023-04-25T03:45:01;16.67;;;10.27;;
74415;SDS011;62850;42.428;25.618;2023-04-25T03:47:27;16.85;;;11.05;;
74415;SDS011;62850;42.428;25.618;2023-04-25T03:49:52;16.55;;;11.50;;
74415;SDS011;62850;42.428;25.618;2023-04-25T03:52:18;16.88;;;11.38;;
74415;SDS011;62850;42.428;25.618;2023-04-25T03:54:43;14.52;;;9.63;;
74415;SDS011;62850;42.428;25.618;2023-04-25T03:57:09;19.13;;;10.88;;
74415;SDS011;62850;42.428;25.618;2023-04-25T03:59:35;15.77;;;9.70;;
74415;SDS011;62850;42.428;25.618;2023-04-25T04:02:00;14.32;;;9.25;;
74415;SDS011;62850;42.428;25.618;2023-04-25T04:04:26;18.10;;;9.73;;
74415;SDS011;62850;42.428;25.618;2023-04-25T04:06:51;16.27;;;9.88;;
74415;SDS011;62850;42.428;25.618;2023-04-25T04:09:17;17.08;;;10.68;;
74415;SDS011;62850;42.428;25.618;2023-04-25T04:11:43;14.75;;;9.73;;
74415;SDS011;62850;42.428;25.618;2023-04-25T04:14:08;15.10;;;9.10;;
74415;SDS011;62850;42.428;25.618;2023-04-25T04:16:35;15.25;;;9.18;;
74415;SDS011;62850;42.428;25.618;2023-04-25T04:19:00;14.20;;;9.00;;
74415;SDS011;62850;42.428;25.618;2023-04-25T04:21:26;13.90;;;8.48;;
74415;SDS011;62850;42.428;25.618;2023-04-25T04:23:52;16.42;;;9.52;;
74415;SDS011;62850;42.428;25.618;2023-04-25T04:26:20;18.88;;;9.50;;
74415;SDS011;62850;42.428;25.618;2023-04-25T04:28:48;15.25;;;8.82;;
74415;SDS011;62850;42.428;25.618;2023-04-25T04:31:16;14.27;;;8.60;;
74415;SDS011;62850;42.428;25.618;2023-04-25T04:33:44;17.42;;;9.70;;
74415;SDS011;62850;42.428;25.618;2023-04-25T04:36:10;13.27;;;8.52;;
74415;SDS011;62850;42.428;25.618;2023-04-25T04:38:35;15.85;;;9.25;;
74415;SDS011;62850;42.428;25.618;2023-04-25T04:41:01;14.98;;;8.50;;
74415;SDS011;62850;42.428;25.618;2023-04-25T04:43:27;15.63;;;8.27;;
74415;SDS011;62850;42.428;25.618;2023-04-25T04:45:53;13.50;;;8.32;;
74415;SDS011;62850;42.428;25.618;2023-04-25T04:48:21;15.57;;;8.02;;
74415;SDS011;62850;42.428;25.618;2023-04-25T04:50:46;15.95;;;8.00;;
74415;SDS011;62850;42.428;25.618;2023-04-25T04:53:12;18.27;;;8.43;;
74415;SDS011;62850;42.428;25.618;2023-04-25T04:55:38;14.48;;;8.38;;
74415;SDS011;62850;42.428;25.618;2023-04-25T04:58:06;14.75;;;8.00;;
74415;SDS011;62850;42.428;25.618;2023-04-25T05:00:31;16.08;;;8.38;;
74415;SDS011;62850;42.428;25.618;2023-04-25T05:02:58;11.95;;;7.40;;
74415;SDS011;62850;42.428;25.618;2023-04-25T05:05:24;16.70;;;8.23;;
74415;SDS011;62850;42.428;25.618;2023-04-25T05:07:50;15.88;;;9.02;;
74415;SDS011;62850;42.428;25.618;2023-04-25T05:10:16;13.35;;;8.75;;
74415;SDS011;62850;42.428;25.618;2023-04-25T05:12:42;14.35;;;8.57;;
74415;SDS011;62850;42.428;25.618;2023-04-25T05:15:07;14.25;;;8.75;;
74415;SDS011;62850;42.428;25.618;2023-04-25T05:17:33;14.57;;;9.10;;
74415;SDS011;62850;42.428;25.618;2023-04-25T05:19:59;13.93;;;8.60;;
74415;SDS011;62850;42.428;25.618;2023-04-25T05:22:25;13.40;;;8.95;;
74415;SDS011;62850;42.428;25.618;2023-04-25T05:24:51;16.83;;;8.52;;
74415;SDS011;62850;42.428;25.618;2023-04-25T05:27:17;13.25;;;8.43;;
74415;SDS011;62850;42.428;25.618;2023-04-25T05:29:43;15.05;;;8.30;;
74415;SDS011;62850;42.428;25.618;2023-04-25T05:32:09;12.65;;;8.27;;
74415;SDS011;62850;42.428;25.618;2023-04-25T05:34:34;19.33;;;8.50;;
74415;SDS011;62850;42.428;25.618;2023-04-25T05:37:00;22.58;;;9.35;;
74415;SDS011;62850;42.428;25.618;2023-04-25T05:39:25;21.55;;;10.48;;
74415;SDS011;62850;42.428;25.618;2023-04-25T05:41:51;21.17;;;13.00;;
74415;SDS011;62850;42.428;25.618;2023-04-25T05:44:17;24.58;;;13.18;;
74415;SDS011;62850;42.428;25.618;2023-04-25T05:46:43;20.00;;;13.18;;
74415;SDS011;62850;42.428;25.618;2023-04-25T05:49:08;25.75;;;13.80;;
74415;SDS011;62850;42.428;25.618;2023-04-25T05:51:34;23.27;;;14.05;;
74415;SDS011;62850;42.428;25.618;2023-04-25T05:53:59;20.85;;;12.65;;
74415;SDS011;62850;42.428;25.618;2023-04-25T05:56:25;24.10;;;13.77;;
74415;SDS011;62850;42.428;25.618;2023-04-25T05:58:50;19.35;;;13.02;;
74415;SDS011;62850;42.428;25.618;2023-04-25T06:01:16;24.92;;;14.32;;
74415;SDS011;62850;42.428;25.618;2023-04-25T06:03:41;25.92;;;14.40;;
74415;SDS011;62850;42.428;25.618;2023-04-25T06:06:08;19.63;;;11.77;;
74415;SDS011;62850;42.428;25.618;2023-04-25T06:08:34;22.60;;;13.20;;
74415;SDS011;62850;42.428;25.618;2023-04-25T06:11:00;24.38;;;12.60;;
74415;SDS011;62850;42.428;25.618;2023-04-25T06:13:25;23.83;;;12.65;;
74415;SDS011;62850;42.428;25.618;2023-04-25T06:15:51;21.88;;;12.00;;
74415;SDS011;62850;42.428;25.618;2023-04-25T06:18:16;17.45;;;10.43;;
74415;SDS011;62850;42.428;25.618;2023-04-25T06:20:42;22.27;;;11.93;;
74415;SDS011;62850;42.428;25.618;2023-04-25T06:23:07;19.35;;;11.98;;
74415;SDS011;62850;42.428;25.618;2023-04-25T06:25:33;24.52;;;12.80;;
74415;SDS011;62850;42.428;25.618;2023-04-25T06:27:58;18.17;;;11.27;;
74415;SDS011;62850;42.428;25.618;2023-04-25T06:30:24;26.15;;;11.95;;
74415;SDS011;62850;42.428;25.618;2023-04-25T06:32:51;20.42;;;12.15;;
74415;SDS011;62850;42.428;25.618;2023-04-25T06:35:18;22.05;;;14.10;;
74415;SDS011;62850;42.428;25.618;2023-04-25T06:37:43;25.33;;;13.15;;
74415;SDS011;62850;42.428;25.618;2023-04-25T06:40:09;28.35;;;15.65;;
74415;SDS011;62850;42.428;25.618;2023-04-25T06:42:35;24.48;;;15.07;;
74415;SDS011;62850;42.428;25.618;2023-04-25T06:45:00;29.08;;;14.75;;
74415;SDS011;62850;42.428;25.618;2023-04-25T06:47:26;32.17;;;17.73;;
74415;SDS011;62850;42.428;25.618;2023-04-25T06:49:51;57.75;;;27.45;;
74415;SDS011;62850;42.428;25.618;2023-04-25T06:52:17;46.25;;;23.35;;
74415;SDS011;62850;42.428;25.618;2023-04-25T06:54:43;31.58;;;17.88;;
74415;SDS011;62850;42.428;25.618;2023-04-25T06:57:08;21.40;;;15.55;;
74415;SDS011;62850;42.428;25.618;2023-04-25T06:59:34;25.58;;;15.60;;
74415;SDS011;62850;42.428;25.618;2023-04-25T07:01:59;20.23;;;13.77;;
74415;SDS011;62850;42.428;25.618;2023-04-25T07:04:25;27.92;;;17.35;;
74415;SDS011;62850;42.428;25.618;2023-04-25T07:06:50;28.90;;;16.02;;
74415;SDS011;62850;42.428;25.618;2023-04-25T07:09:16;26.48;;;17.35;;
74415;SDS011;62850;42.428;25.618;2023-04-25T07:11:42;28.25;;;15.75;;
74415;SDS011;62850;42.428;25.618;2023-04-25T07:14:07;27.10;;;16.08;;
74415;SDS011;62850;42.428;25.618;2023-04-25T07:16:32;28.23;;;16.30;;
74415;SDS011;62850;42.428;25.618;2023-04-25T07:18:58;24.77;;;16.52;;
74415;SDS011;62850;42.428;25.618;2023-04-25T07:21:24;30.50;;;17.73;;
74415;SDS011;62850;42.428;25.618;2023-04-25T07:23:50;25.98;;;17.25;;
74415;SDS011;62850;42.428;25.618;2023-04-25T07:26:16;29.10;;;18.02;;
74415;SDS011;62850;42.428;25.618;2023-04-25T07:28:41;31.27;;;18.85;;
74415;SDS011;62850;42.428;25.618;2023-04-25T07:31:08;34.60;;;20.95;;
74415;SDS011;62850;42.428;25.618;2023-04-25T07:33:34;32.95;;;19.73;;
74415;SDS011;62850;42.428;25.618;2023-04-25T07:35:59;30.63;;;17.42;;
74415;SDS011;62850;42.428;25.618;2023-04-25T07:38:25;33.63;;;19.00;;
74415;SDS011;62850;42.428;25.618;2023-04-25T07:40:51;33.22;;;18.20;;
74415;SDS011;62850;42.428;25.618;2023-04-25T07:43:16;28.85;;;19.23;;
74415;SDS011;62850;42.428;25.618;2023-04-25T07:45:44;29.85;;;17.70;;
74415;SDS011;62850;42.428;25.618;2023-04-25T07:48:11;30.10;;;19.20;;
74415;SDS011;62850;42.428;25.618;2023-04-25T07:50:36;37.65;;;20.40;;
74415;SDS011;62850;42.428;25.618;2023-04-25T07:53:02;32.97;;;19.95;;
74415;SDS011;62850;42.428;25.618;2023-04-25T07:55:28;34.22;;;18.98;;
74415;SDS011;62850;42.428;25.618;2023-04-25T07:57:53;27.00;;;19.50;;
74415;SDS011;62850;42.428;25.618;2023-04-25T08:00:19;27.98;;;18.55;;
74415;SDS011;62850;42.428;25.618;2023-04-25T08:02:44;22.67;;;15.60;;
74415;SDS011;62850;42.428;25.618;2023-04-25T08:05:10;23.73;;;14.77;;
74415;SDS011;62850;42.428;25.618;2023-04-25T08:07:39;20.52;;;11.85;;
74415;SDS011;62850;42.428;25.618;2023-04-25T08:10:05;16.38;;;11.40;;
74415;SDS011;62850;42.428;25.618;2023-04-25T08:12:32;19.75;;;11.98;;
74415;SDS011;62850;42.428;25.618;2023-04-25T08:14:57;20.15;;;11.10;;
74415;SDS011;62850;42.428;25.618;2023-04-25T08:17:23;17.13;;;10.45;;
74415;SDS011;62850;42.428;25.618;2023-04-25T08:19:49;19.52;;;11.10;;
74415;SDS011;62850;42.428;25.618;2023-04-25T08:22:14;16.60;;;9.70;;
74415;SDS011;62850;42.428;25.618;2023-04-25T08:24:40;17.55;;;10.27;;
74415;SDS011;62850;42.428;25.618;2023-04-25T08:27:06;18.05;;;9.88;;
74415;SDS011;62850;42.428;25.618;2023-04-25T08:29:33;14.82;;;9.18;;
74415;SDS011;62850;42.428;25.618;2023-04-25T08:31:59;14.50;;;9.90;;
74415;SDS011;62850;42.428;25.618;2023-04-25T08:34:25;13.65;;;9.52;;
74415;SDS011;62850;42.428;25.618;2023-04-25T08:36:51;16.27;;;9.15;;
74415;SDS011;62850;42.428;25.618;2023-04-25T08:39:16;23.17;;;11.10;;
74415;SDS011;62850;42.428;25.618;2023-04-25T08:41:42;16.58;;;9.23;;
74415;SDS011;62850;42.428;25.618;2023-04-25T08:44:10;17.40;;;9.95;;
74415;SDS011;62850;42.428;25.618;2023-04-25T08:46:37;15.60;;;10.07;;
74415;SDS011;62850;42.428;25.618;2023-04-25T08:49:05;13.45;;;9.98;;
74415;SDS011;62850;42.428;25.618;2023-04-25T08:51:32;12.55;;;9.38;;
74415;SDS011;62850;42.428;25.618;2023-04-25T08:54:11;13.70;;;9.75;;
74415;SDS011;62850;42.428;25.618;2023-04-25T08:56:43;13.75;;;8.57;;
74415;SDS011;62850;42.428;25.618;2023-04-25T08:59:11;14.43;;;10.07;;
74415;SDS011;62850;42.428;25.618;2023-04-25T09:01:37;19.95;;;9.35;;
74415;SDS011;62850;42.428;25.618;2023-04-25T09:04:02;18.80;;;9.55;;
74415;SDS011;62850;42.428;25.618;2023-04-25T09:06:28;12.98;;;8.20;;
74415;SDS011;62850;42.428;25.618;2023-04-25T09:09:00;12.63;;;6.85;;
74415;SDS011;62850;42.428;25.618;2023-04-25T09:11:28;11.38;;;7.53;;
74415;SDS011;62850;42.428;25.618;2023-04-25T09:14:09;13.50;;;6.63;;
74415;SDS011;62850;42.428;25.618;2023-04-25T09:19:22;9.65;;;5.60;;
74415;SDS011;62850;42.428;25.618;2023-04-25T09:21:50;11.02;;;6.00;;
74415;SDS011;62850;42.428;25.618;2023-04-25T09:24:16;9.52;;;5.22;;
74415;SDS011;62850;42.428;25.618;2023-04-25T09:26:44;9.30;;;5.30;;
74415;SDS011;62850;42.428;25.618;2023-04-25T09:29:09;9.32;;;5.57;;
74415;SDS011;62850;42.428;25.618;2023-04-25T09:31:35;8.02;;;4.38;;
74415;SDS011;62850;42.428;25.618;2023-04-25T09:34:01;9.35;;;4.57;;
74415;SDS011;62850;42.428;25.618;2023-04-25T09:36:27;10.98;;;4.60;;
74415;SDS011;62850;42.428;25.618;2023-04-25T09:38:54;11.15;;;4.57;;
74415;SDS011;62850;42.428;25.618;2023-04-25T09:41:23;5.15;;;3.70;;
74415;SDS011;62850;42.428;25.618;2023-04-25T09:43:49;6.20;;;3.50;;
74415;SDS011;62850;42.428;25.618;2023-04-25T09:46:15;5.97;;;3.40;;
74415;SDS011;62850;42.428;25.618;2023-04-25T09:48:47;8.35;;;4.07;;
74415;SDS011;62850;42.428;25.618;2023-04-25T09:51:15;6.38;;;3.55;;
74415;SDS011;62850;42.428;25.618;2023-04-25T09:53:44;6.50;;;3.42;;
74415;SDS011;62850;42.428;25.618;2023-04-25T09:56:14;5.88;;;3.60;;
74415;SDS011;62850;42.428;25.618;2023-04-25T09:58:41;9.95;;;3.42;;
74415;SDS011;62850;42.428;25.618;2023-04-25T10:01:07;7.40;;;3.40;;
74415;SDS011;62850;42.428;25.618;2023-04-25T10:03:34;5.50;;;3.03;;
74415;SDS011;62850;42.428;25.618;2023-04-25T10:06:03;5.82;;;3.28;;
74415;SDS011;62850;42.428;25.618;2023-04-25T10:08:32;7.68;;;3.10;;
74415;SDS011;62850;42.428;25.618;2023-04-25T10:11:03;8.40;;;3.60;;
74415;SDS011;62850;42.428;25.618;2023-04-25T10:13:30;9.10;;;3.65;;
74415;SDS011;62850;42.428;25.618;2023-04-25T10:16:01;5.43;;;3.30;;
74415;SDS011;62850;42.428;25.618;2023-04-25T10:18:29;9.85;;;3.78;;
74415;SDS011;62850;42.428;25.618;2023-04-25T10:20:59;6.63;;;3.38;;
74415;SDS011;62850;42.428;25.618;2023-04-25T10:23:26;6.47;;;3.67;;
74415;SDS011;62850;42.428;25.618;2023-04-25T10:25:54;6.43;;;3.42;;
74415;SDS011;62850;42.428;25.618;2023-04-25T10:28:20;5.68;;;3.38;;
74415;SDS011;62850;42.428;25.618;2023-04-25T10:31:02;6.90;;;3.17;;
74415;SDS011;62850;42.428;25.618;2023-04-25T10:33:30;9.52;;;4.10;;
74415;SDS011;62850;42.428;25.618;2023-04-25T10:36:10;6.28;;;3.95;;
74415;SDS011;62850;42.428;25.618;2023-04-25T10:38:37;5.97;;;3.53;;
74415;SDS011;62850;42.428;25.618;2023-04-25T10:41:06;7.60;;;4.05;;
74415;SDS011;62850;42.428;25.618;2023-04-25T10:43:37;7.55;;;3.80;;
74415;SDS011;62850;42.428;25.618;2023-04-25T10:48:43;6.82;;;4.40;;
74415;SDS011;62850;42.428;25.618;2023-04-25T10:54:01;12.10;;;6.40;;
74415;SDS011;62850;42.428;25.618;2023-04-25T10:56:29;10.70;;;5.10;;
74415;SDS011;62850;42.428;25.618;2023-04-25T10:59:17;8.82;;;4.25;;
74415;SDS011;62850;42.428;25.618;2023-04-25T11:01:41;19.20;;;7.82;;
74415;SDS011;62850;42.428;25.618;2023-04-25T11:09:27;5.53;;;2.95;;
74415;SDS011;62850;42.428;25.618;2023-04-25T11:11:57;3.42;;;1.80;;
74415;SDS011;62850;42.428;25.618;2023-04-25T11:14:25;4.38;;;1.92;;
74415;SDS011;62850;42.428;25.618;2023-04-25T11:16:57;42.67;;;13.95;;
74415;SDS011;62850;42.428;25.618;2023-04-25T11:19:23;4.90;;;2.10;;
74415;SDS011;62850;42.428;25.618;2023-04-25T11:21:55;5.55;;;2.20;;
74415;SDS011;62850;42.428;25.618;2023-04-25T11:24:30;7.13;;;2.10;;
74415;SDS011;62850;42.428;25.618;2023-04-25T11:27:00;4.75;;;2.33;;
74415;SDS011;62850;42.428;25.618;2023-04-25T11:29:31;7.93;;;2.80;;
74415;SDS011;62850;42.428;25.618;2023-04-25T11:31:58;3.70;;;2.20;;
74415;SDS011;62850;42.428;25.618;2023-04-25T11:34:25;5.50;;;2.90;;
74415;SDS011;62850;42.428;25.618;2023-04-25T11:36:51;6.82;;;3.42;;
74415;SDS011;62850;42.428;25.618;2023-04-25T11:39:18;4.47;;;2.47;;
74415;SDS011;62850;42.428;25.618;2023-04-25T11:41:44;6.95;;;2.60;;
74415;SDS011;62850;42.428;25.618;2023-04-25T11:44:10;6.78;;;2.50;;
74415;SDS011;62850;42.428;25.618;2023-04-25T11:46:36;4.85;;;2.33;;
74415;SDS011;62850;42.428;25.618;2023-04-25T11:49:01;5.57;;;2.35;;
74415;SDS011;62850;42.428;25.618;2023-04-25T11:51:28;4.50;;;2.38;;
74415;SDS011;62850;42.428;25.618;2023-04-25T11:53:53;5.10;;;2.20;;
74415;SDS011;62850;42.428;25.618;2023-04-25T11:56:19;7.25;;;2.40;;
74415;SDS011;62850;42.428;25.618;2023-04-25T11:58:58;4.70;;;2.45;;
74415;SDS011;62850;42.428;25.618;2023-04-25T12:01:34;5.63;;;2.08;;
74415;SDS011;62850;42.428;25.618;2023-04-25T12:04:11;4.55;;;2.10;;
74415;SDS011;62850;42.428;25.618;2023-04-25T12:06:48;4.00;;;2.22;;
74415;SDS011;62850;42.428;25.618;2023-04-25T12:09:16;3.65;;;2.10;;
74415;SDS011;62850;42.428;25.618;2023-04-25T12:11:52;6.32;;;2.45;;
74415;SDS011;62850;42.428;25.618;2023-04-25T12:14:22;4.50;;;1.90;;
74415;SDS011;62850;42.428;25.618;2023-04-25T12:16:49;5.85;;;2.20;;
74415;SDS011;62850;42.428;25.618;2023-04-25T12:19:16;6.57;;;2.47;;
74415;SDS011;62850;42.428;25.618;2023-04-25T12:21:42;3.70;;;2.15;;
74415;SDS011;62850;42.428;25.618;2023-04-25T12:31:46;4.55;;;2.60;;
74415;SDS011;62850;42.428;25.618;2023-04-25T12:34:12;6.72;;;2.30;;
74415;SDS011;62850;42.428;25.618;2023-04-25T12:36:37;4.22;;;2.47;;
74415;SDS011;62850;42.428;25.618;2023-04-25T12:39:04;5.30;;;2.42;;
74415;SDS011;62850;42.428;25.618;2023-04-25T12:41:30;4.97;;;2.67;;
74415;SDS011;62850;42.428;25.618;2023-04-25T12:43:55;6.65;;;2.40;;
74415;SDS011;62850;42.428;25.618;2023-04-25T12:46:22;3.35;;;2.13;;
74415;SDS011;62850;42.428;25.618;2023-04-25T12:48:48;6.63;;;2.58;;
74415;SDS011;62850;42.428;25.618;2023-04-25T12:51:13;4.00;;;2.08;;
74415;SDS011;62850;42.428;25.618;2023-04-25T12:53:40;3.83;;;1.80;;
74415;SDS011;62850;42.428;25.618;2023-04-25T12:56:09;5.78;;;2.30;;
74415;SDS011;62850;42.428;25.618;2023-04-25T12:58:34;5.72;;;2.35;;
74415;SDS011;62850;42.428;25.618;2023-04-25T13:01:00;4.05;;;2.40;;
74415;SDS011;62850;42.428;25.618;2023-04-25T13:03:26;3.80;;;1.75;;
74415;SDS011;62850;42.428;25.618;2023-04-25T13:05:51;4.97;;;1.70;;
74415;SDS011;62850;42.428;25.618;2023-04-25T13:08:20;4.60;;;2.10;;
74415;SDS011;62850;42.428;25.618;2023-04-25T13:10:47;3.85;;;1.88;;
74415;SDS011;62850;42.428;25.618;2023-04-25T13:13:13;4.93;;;1.83;;
74415;SDS011;62850;42.428;25.618;2023-04-25T13:15:38;3.92;;;1.50;;
74415;SDS011;62850;42.428;25.618;2023-04-25T13:18:03;5.78;;;1.70;;
74415;SDS011;62850;42.428;25.618;2023-04-25T13:20:32;5.13;;;1.60;;
74415;SDS011;62850;42.428;25.618;2023-04-25T13:22:58;3.97;;;1.52;;
74415;SDS011;62850;42.428;25.618;2023-04-25T13:25:23;5.07;;;1.80;;
74415;SDS011;62850;42.428;25.618;2023-04-25T13:27:49;4.47;;;1.88;;
74415;SDS011;62850;42.428;25.618;2023-04-25T13:30:15;3.97;;;2.10;;
74415;SDS011;62850;42.428;25.618;2023-04-25T13:32:40;4.88;;;1.90;;
74415;SDS011;62850;42.428;25.618;2023-04-25T13:35:10;5.57;;;2.15;;
74415;SDS011;62850;42.428;25.618;2023-04-25T13:37:37;3.67;;;1.83;;
74415;SDS011;62850;42.428;25.618;2023-04-25T13:40:04;3.55;;;2.10;;
74415;SDS011;62850;42.428;25.618;2023-04-25T13:42:36;3.88;;;2.35;;
74415;SDS011;62850;42.428;25.618;2023-04-25T13:45:02;7.50;;;2.95;;
74415;SDS011;62850;42.428;25.618;2023-04-25T13:47:28;4.53;;;2.15;;
74415;SDS011;62850;42.428;25.618;2023-04-25T13:49:55;3.70;;;2.00;;
74415;SDS011;62850;42.428;25.618;2023-04-25T13:52:20;4.68;;;1.95;;
74415;SDS011;62850;42.428;25.618;2023-04-25T13:54:46;4.35;;;2.70;;
74415;SDS011;62850;42.428;25.618;2023-04-25T13:57:12;5.80;;;2.60;;
74415;SDS011;62850;42.428;25.618;2023-04-25T13:59:38;3.83;;;2.22;;
74415;SDS011;62850;42.428;25.618;2023-04-25T14:02:04;5.38;;;3.08;;
74415;SDS011;62850;42.428;25.618;2023-04-25T14:04:30;5.28;;;2.47;;
74415;SDS011;62850;42.428;25.618;2023-04-25T14:06:55;5.20;;;2.40;;
74415;SDS011;62850;42.428;25.618;2023-04-25T14:09:21;3.65;;;2.10;;
74415;SDS011;62850;42.428;25.618;2023-04-25T14:11:51;5.13;;;2.20;;
74415;SDS011;62850;42.428;25.618;2023-04-25T14:14:17;3.90;;;2.40;;
74415;SDS011;62850;42.428;25.618;2023-04-25T14:16:43;5.28;;;2.30;;
74415;SDS011;62850;42.428;25.618;2023-04-25T14:19:08;6.90;;;2.50;;
74415;SDS011;62850;42.428;25.618;2023-04-25T14:21:34;5.35;;;2.55;;
74415;SDS011;62850;42.428;25.618;2023-04-25T14:24:00;4.60;;;2.60;;
74415;SDS011;62850;42.428;25.618;2023-04-25T14:26:26;6.20;;;3.00;;
74415;SDS011;62850;42.428;25.618;2023-04-25T14:28:51;4.50;;;2.67;;
74415;SDS011;62850;42.428;25.618;2023-04-25T14:31:17;8.07;;;2.80;;
74415;SDS011;62850;42.428;25.618;2023-04-25T14:33:42;5.53;;;2.63;;
74415;SDS011;62850;42.428;25.618;2023-04-25T14:36:08;6.47;;;2.75;;
74415;SDS011;62850;42.428;25.618;2023-04-25T14:38:35;5.07;;;2.50;;